Latest Weather Observations for Norah Head

IDN60801

Issued at 1:23 pm EDT Monday 30 November 2020 (issued every 10 minutes, with the page automatically refreshed every 10 minutes)

About weather observations | Map of weather stations | Latest weather observations for NSW | Other Formats
Station Details ID: 061366 Name: NORAH HEAD AWS Lat: -33.28 Lon: 151.58 Height: 18.8 m
Data from the previous 72 hours. | See also: Recent months at Norah Head
Date/Time
EDT
Temp
°C
App
Temp
°C
Dew
Point
°C
Rel
Hum
%
Delta-T
°C
Wind Press
QNH
hPa
Press
MSL
hPa
Rain since
9am
mm
Dir  Spd
km/h
Gust
km/h
Spd
kts
Gust
kts
30/01:00pm 22.4 22.8 16.4 69 3.6 ESE 9 17 5 9 1017.3 1017.2 0.0
30/12:30pm 21.5 23.7 16.5 73 3.0 CALM 0 2 0 1 1017.5 1017.4 0.0
30/12:00pm 20.5 21.4 16.7 79 2.3 NE 7 13 4 7 1017.7 1017.6 0.0
30/11:30am 20.3 20.9 15.9 76 2.6 ESE 7 13 4 7 1017.9 1017.8 0.0
30/11:00am 20.1 19.7 16.1 78 2.4 SSE 13 19 7 10 1018.0 1017.9 0.0
30/10:30am 20.4 17.9 16.2 77 2.5 S 24 28 13 15 1017.9 1017.8 0.0
30/10:00am 20.1 17.4 15.5 75 2.7 S 24 32 13 17 1017.7 1017.6 0.0
30/09:30am 20.5 17.8 15.7 74 2.9 S 24 28 13 15 1017.6 1017.5 0.0
30/09:00am 20.5 17.8 15.7 74 2.9 S 24 28 13 15 1017.5 1017.4 0.0
30/08:30am 20.6 17.4 15.2 71 3.2 S 26 32 14 17 1017.4 1017.3 0.0
30/08:00am 20.7 17.6 15.5 72 3.1 S 26 30 14 16 1017.1 1017.0 0.0
30/07:30am 20.7 18.0 15.7 73 3.0 S 24 30 13 16 1016.8 1016.7 0.0
30/07:00am 20.2 17.9 15.6 75 2.7 S 22 28 12 15 1016.5 1016.4 0.0
30/06:30am 19.3 16.1 15.2 77 2.4 S 26 32 14 17 1016.2 1016.1 0.0
30/06:00am 19.3 14.7 15.2 77 2.4 S 33 39 18 21 1015.8 1015.7 0.0
30/05:30am 19.2 13.4 14.9 76 2.5 S 39 46 21 25 1015.2 1015.1 0.0
30/05:00am 19.2 13.8 15.1 77 2.4 S 37 46 20 25 1014.9 1014.8 0.0
30/04:30am 19.1 14.2 15.2 78 2.3 S 35 44 19 24 1014.8 1014.7 0.0
30/04:00am 19.2 13.5 15.1 77 2.4 S 39 44 21 24 1014.4 1014.3 0.0
30/03:30am 19.5 13.2 14.5 73 2.9 S 41 46 22 25 1014.2 1014.1 0.0
30/03:00am 19.6 13.8 15.0 75 2.7 S 39 46 21 25 1014.4 1014.3 0.0
30/02:30am 19.7 15.8 15.6 77 2.4 S 30 41 16 22 1014.2 1014.1 0.0
30/02:00am 19.8 15.5 15.4 76 2.6 S 32 39 17 21 1014.5 1014.4 0.0
30/01:30am 19.9 15.4 15.3 75 2.7 S 33 37 18 20 1014.5 1014.4 0.0
30/01:00am 20.0 15.6 15.2 74 2.8 S 32 41 17 22 1014.6 1014.5 0.0
30/12:30am 20.3 16.8 15.5 74 2.8 S 28 33 15 18 1014.8 1014.7 0.0
30/12:00am 20.1 15.5 15.1 73 2.9 S 33 37 18 20 1014.6 1014.5 0.0
 
Date/Time
EDT
Temp
°C
App
Temp
°C
Dew
Point
°C
Rel
Hum
%
Delta-T
°C
Wind Press
QNH
hPa
Press
MSL
hPa
Rain since
9am
mm
Dir  Spd
km/h
Gust
km/h
Spd
kts
Gust
kts
29/11:30pm 20.2 15.7 15.4 74 2.8 S 33 39 18 21 1014.0 1013.9 0.0
29/11:00pm 20.3 16.2 15.9 76 2.6 S 32 39 17 21 1013.8 1013.7 0.0
29/10:30pm 20.6 15.1 15.8 74 2.9 S 39 44 21 24 1013.3 1013.2 0.0
29/10:00pm 20.7 15.8 16.3 76 2.7 S 37 44 20 24 1012.8 1012.7 0.0
29/09:30pm 20.8 15.5 16.4 76 2.7 S 39 48 21 26 1012.0 1011.9 0.0
29/09:00pm 20.9 15.4 16.7 77 2.6 S 41 46 22 25 1011.0 1010.9 0.0
29/08:30pm 21.1 15.2 17.1 78 2.4 S 44 54 24 29 1010.0 1009.9 0.0
29/08:00pm 21.4 16.5 18.2 82 2.0 S 41 50 22 27 1008.7 1008.7 0.0
29/07:30pm 21.6 15.8 18.2 81 2.1 S 46 54 25 29 1007.3 1007.3 0.0
29/07:00pm 22.2 16.3 19.0 82 2.0 S 48 65 26 35 1005.7 1005.7 0.0
29/06:54pm 22.3 15.2 18.9 81 2.1 S 54 67 29 36 1005.4 1005.4 0.0
29/06:30pm 23.1 16.5 18.2 74 3.1 S 50 61 27 33 1003.3 1003.3 0.0
29/06:20pm 23.8 16.6 17.8 69 3.7 S 52 70 28 38 1002.8 1002.8 0.0
29/06:10pm 26.9 23.5 15.9 51 6.7 SSW 28 67 15 36 1002.1 1002.1 0.0
29/06:00pm 31.0 28.4 13.7 34 10.5 SSW 20 30 11 16 1001.6 1001.6 0.0
29/05:58pm 31.8 29.5 14.0 34 10.8 SSW 19 30 10 16 1001.5 1001.5 0.0
29/05:30pm 37.1 35.4 12.5 23 14.9 W 13 30 7 16 999.7 999.7 0.0
29/05:00pm 37.7 36.4 13.7 24 14.9 W 13 26 7 14 998.9 998.9 0.0
29/04:30pm 39.9 36.6 12.7 20 16.7 W 22 43 12 23 998.4 998.4 0.0
29/04:00pm 40.8 39.0 13.4 20 17.1 W 15 39 8 21 998.2 998.2 0.0
29/03:30pm 40.7 39.0 12.6 19 17.3 NW 13 39 7 21 998.3 998.3 0.0
29/03:00pm 41.0 37.8 12.0 18 17.8 WNW 20 44 11 24 998.3 998.3 0.0
29/02:30pm 40.4 37.5 12.3 19 17.2 WNW 19 37 10 20 998.4 998.4 0.0
29/02:00pm 39.7 38.4 14.7 23 15.8 NW 15 41 8 22 998.3 998.3 0.0
29/01:30pm 38.0 35.4 13.9 24 14.9 NW 20 39 11 21 998.5 998.5 0.0
29/01:00pm 37.1 34.1 12.5 23 15.0 NW 20 46 11 25 998.9 998.9 0.0
29/12:30pm 37.0 33.6 12.4 23 14.9 WNW 22 41 12 22 999.4 999.4 0.0
29/12:08pm 36.6 31.9 12.1 23 14.7 NW 28 56 15 30 999.5 999.5 0.0
29/12:00pm 36.3 32.0 11.9 23 14.7 NW 26 46 14 25 999.5 999.5 0.0
29/11:38am 36.2 31.2 11.1 22 14.8 NW 28 50 15 27 999.9 999.9 0.0
29/11:30am 36.2 32.4 11.1 22 14.8 NW 22 43 12 23 1000.0 1000.0 0.0
29/11:14am 35.7 30.8 11.4 23 14.4 NW 28 56 15 30 1000.0 1000.0 0.0
29/11:00am 35.5 31.9 11.8 24 14.2 NW 22 46 12 25 1000.6 1000.6 0.0
29/10:30am 34.7 32.0 13.0 27 13.1 NW 19 32 10 17 1000.8 1000.8 0.0
29/10:00am 34.1 30.9 11.9 26 13.2 NW 20 41 11 22 1000.9 1000.9 0.0
29/09:30am 32.5 29.2 14.1 32 11.2 NNW 24 35 13 19 1001.1 1001.1 0.0
29/09:00am 31.7 29.3 13.9 34 10.8 NW 19 33 10 18 1001.2 1001.2 0.2
29/08:30am 29.9 27.1 13.2 36 9.9 NNW 20 33 11 18 1001.1 1001.1 0.2
29/08:00am 30.6 26.3 12.0 32 10.9 NW 26 46 14 25 1001.1 1001.1 0.2
29/07:38am 29.9 24.9 12.3 33 10.3 NNW 30 50 16 27 1000.3 1000.3 0.2
29/07:31am 30.6 22.7 11.5 30 11.1 N 44 65 24 35 999.6 999.6 0.2
29/07:30am 30.4 22.3 11.9 32 10.8 N 46 65 25 35 999.7 999.7 0.2
29/07:05am 29.8 24.0 12.7 35 10.1 NNW 35 54 19 29 1001.0 1001.0 0.2
29/07:00am 29.0 24.8 13.6 38 9.2 NNW 28 37 15 20 1001.4 1001.4 0.2
29/06:30am 27.8 24.7 15.5 47 7.5 NNW 26 41 14 22 1002.2 1002.2 0.2
29/06:00am 25.8 22.0 18.2 63 4.8 N 35 41 19 22 1002.1 1002.1 0.2
29/05:30am 22.8 23.1 20.7 88 1.4 NNW 20 30 11 16 1003.2 1003.2 0.2
29/05:00am 22.2 21.8 20.1 88 1.4 NNW 22 24 12 13 1003.3 1003.3 0.0
29/04:30am 22.5 24.6 20.2 87 1.5 NNW 9 13 5 7 1003.9 1003.9 0.0
29/04:00am 22.1 24.2 20.2 89 1.2 NW 9 13 5 7 1004.4 1004.4 0.0
29/03:30am 22.0 24.6 20.1 89 1.2 NW 6 9 3 5 1004.2 1004.2 0.0
29/03:00am 21.8 24.8 20.1 90 1.1 WNW 4 7 2 4 1004.9 1004.9 0.0
29/02:30am 21.8 23.8 19.9 89 1.2 S 9 13 5 7 1005.0 1005.0 0.0
29/02:00am 21.8 21.7 19.5 87 1.5 SSW 19 26 10 14 1005.6 1005.6 0.0
29/01:30am 22.6 22.1 19.0 80 2.3 SSW 20 26 11 14 1006.4 1006.4 0.0
29/01:00am 22.8 24.9 19.4 81 2.2 NNE 7 9 4 5 1005.3 1005.3 0.0
29/12:30am 23.5 25.7 19.6 79 2.5 N 7 9 4 5 1005.4 1005.4 0.0
29/12:00am 23.7 25.4 19.4 77 2.8 N 9 11 5 6 1005.2 1005.2 0.0
 
Date/Time
EDT
Temp
°C
App
Temp
°C
Dew
Point
°C
Rel
Hum
%
Delta-T
°C
Wind Press
QNH
hPa
Press
MSL
hPa
Rain since
9am
mm
Dir  Spd
km/h
Gust
km/h
Spd
kts
Gust
kts
28/11:30pm 23.7 25.8 19.4 77 2.8 NNE 7 9 4 5 1005.2 1005.2 0.0
28/11:00pm 24.0 26.1 20.1 79 2.5 N 9 11 5 6 1004.9 1004.9 0.0
28/10:30pm 22.9 24.1 19.9 83 1.9 N 13 19 7 10 1005.1 1005.1 0.0
28/10:00pm 23.0 22.4 19.8 82 2.1 NNE 22 24 12 13 1005.2 1005.2 0.0
28/09:30pm 23.4 22.6 20.0 81 2.2 NNE 24 28 13 15 1005.5 1005.5 0.0
28/09:00pm 23.7 21.4 20.2 81 2.3 NNE 32 35 17 19 1005.1 1005.1 0.0
28/08:30pm 23.6 20.8 20.3 82 2.1 NNE 35 39 19 21 1004.9 1004.9 0.0
28/08:00pm 23.4 21.0 20.3 83 2.0 NNE 33 35 18 19 1004.9 1004.9 0.0
28/07:30pm 23.5 20.7 20.2 82 2.1 NNE 35 41 19 22 1004.6 1004.6 0.0
28/07:22pm 23.6 21.4 20.3 82 2.1 NE 32 39 17 21 1004.6 1004.6 0.0
28/07:00pm 23.7 25.2 19.8 79 2.5 N 11 19 6 10 1004.9 1004.9 0.0
28/06:30pm 24.0 24.5 19.3 75 3.0 NNE 15 22 8 12 1005.0 1005.0 0.0
28/06:00pm 24.8 26.6 19.6 73 3.4 NW 9 15 5 8 1004.8 1004.8 0.0
28/05:30pm 25.1 25.4 19.5 71 3.6 NNE 17 28 9 15 1004.9 1004.9 0.0
28/05:00pm 28.5 26.8 18.0 53 6.7 NE 24 33 13 18 1005.0 1005.0 0.0
28/04:54pm 32.6 32.0 17.6 40 9.6 N 17 30 9 16 1005.0 1005.0 0.0
28/04:30pm 38.1 38.1 15.2 25 14.5 NW 9 20 5 11 1005.2 1005.2 0.0
28/04:00pm 37.5 37.5 15.3 26 14.0 NW 9 20 5 11 1005.4 1005.4 0.0
28/03:30pm 37.5 37.8 15.9 28 13.7 NW 9 20 5 11 1005.8 1005.8 0.0
28/03:00pm 39.0 37.8 14.1 23 15.6 NW 13 28 7 15 1006.1 1006.1 0.0
28/02:30pm 37.7 36.8 14.9 26 14.3 NW 13 32 7 17 1006.3 1006.3 0.0
28/02:00pm 38.2 38.1 15.9 26 14.2 NW 11 24 6 13 1006.8 1006.8 0.0
28/01:30pm 38.0 38.1 17.4 29 13.4 NW 13 20 7 11 1007.2 1007.2 0.0
28/01:00pm 37.4 36.7 16.4 29 13.5 NW 15 28 8 15 1007.6 1007.6 0.0
28/12:30pm 37.4 37.7 17.9 31 12.7 NW 13 30 7 16 1008.0 1008.0 0.0
28/12:00pm 36.2 35.5 17.4 33 12.2 NW 17 28 9 15 1008.3 1008.3 0.0
28/11:30am 35.1 36.1 19.5 40 10.3 NNW 13 24 7 13 1008.7 1008.7 0.0
28/11:00am 31.4 35.2 22.7 60 6.0 NNW 7 13 4 7 1009.1 1009.1 0.0
28/10:30am 27.5 31.4 21.8 71 3.8 N 4 7 2 4 1009.7 1009.6 0.0
28/10:00am 25.3 28.6 21.4 79 2.6 N 6 9 3 5 1010.0 1009.9 0.0
28/09:30am 24.1 27.0 20.6 81 2.3 N 6 7 3 4 1010.3 1010.2 0.0
28/09:00am 23.7 26.8 21.4 87 1.5 NNE 7 9 4 5 1010.6 1010.5 0.0
28/08:30am 22.8 26.0 21.3 91 1.0 NNE 6 6 3 3 1010.7 1010.6 0.0
28/08:00am 22.2 25.5 21.5 96 0.5 N 6 7 3 4 1010.6 1010.5 0.0
28/07:30am 21.8 25.3 21.8 100 0.0 NNE 6 6 3 3 1010.5 1010.4 0.0
28/07:00am 20.9 25.1 20.9 100 0.0 CALM 0 4 0 2 1010.4 1010.3 0.0
28/06:30am 20.4 23.2 20.4 100 0.0 N 6 7 3 4 1010.0 1009.9 0.0
28/06:00am 20.0 22.4 20.0 100 0.0 NNE 7 7 4 4 1010.0 1009.9 0.0
28/05:30am 19.6 22.4 19.6 100 0.0 N 4 6 2 3 1009.9 1009.8 0.0
28/05:00am 20.0 22.6 20.0 100 0.0 N 6 6 3 3 1009.9 1009.8 0.0
28/04:30am 20.1 22.5 20.1 100 0.0 N 7 9 4 5 1009.9 1009.8 0.0
28/04:00am 20.1 21.0 20.1 100 0.0 NNE 15 17 8 9 1009.9 1009.8 0.0
28/03:30am 20.3 20.9 20.3 100 0.0 NNE 17 19 9 10 1010.2 1010.1 0.0
28/03:00am 20.3 20.9 20.3 100 0.0 NNE 17 20 9 11 1010.4 1010.3 0.0
28/02:30am 20.4 20.7 20.4 100 0.0 NNE 19 20 10 11 1010.8 1010.7 0.0
28/02:00am 20.4 21.4 20.2 99 0.1 NNE 15 17 8 9 1011.1 1011.0 0.0
28/01:30am 20.5 21.1 20.3 99 0.1 NNE 17 19 9 10 1011.4 1011.3 0.0
28/01:00am 20.5 21.1 20.2 98 0.2 NNE 17 17 9 9 1011.8 1011.7 0.0
28/12:30am 20.6 21.1 20.1 97 0.3 NNE 17 19 9 10 1012.2 1012.1 0.0
28/12:00am 20.6 20.8 20.1 97 0.3 NNE 19 20 10 11 1012.5 1012.4 0.0
 
Date/Time
EDT
Temp
°C
App
Temp
°C
Dew
Point
°C
Rel
Hum
%
Delta-T
°C
Wind Press
QNH
hPa
Press
MSL
hPa
Rain since
9am
mm
Dir  Spd
km/h
Gust
km/h
Spd
kts
Gust
kts
27/11:30pm 20.7 21.2 20.0 96 0.4 NNE 17 19 9 10 1012.8 1012.7 0.0
27/11:00pm 20.8 21.3 20.0 95 0.5 NNE 17 19 9 10 1013.0 1012.9 0.0
27/10:30pm 20.9 21.1 20.1 95 0.5 NNE 19 22 10 12 1013.3 1013.2 0.0
27/10:00pm 21.1 20.8 20.3 95 0.5 NNE 22 24 12 13 1013.5 1013.4 0.0
27/09:30pm 21.0 21.2 20.2 95 0.5 NNE 19 22 10 12 1013.4 1013.3 0.0
27/09:00pm 21.2 21.3 20.4 95 0.5 NNE 20 24 11 13 1013.5 1013.4 0.0
27/08:30pm 21.1 20.8 20.3 95 0.5 NNE 22 26 12 14 1013.4 1013.3 0.0
27/08:00pm 21.1 20.4 20.3 95 0.5 N 24 28 13 15 1013.4 1013.3 0.0
27/07:30pm 21.2 20.5 20.2 94 0.6 NNE 24 28 13 15 1013.2 1013.1 0.0
27/07:00pm 21.3 20.9 20.1 93 0.8 NNE 22 24 12 13 1013.2 1013.1 0.0
27/06:30pm 21.3 19.5 19.6 90 1.1 NNE 28 32 15 17 1013.0 1012.9 0.0
27/06:00pm 21.6 19.4 19.5 88 1.3 NNE 30 35 16 19 1013.1 1013.0 0.0
27/05:30pm 22.0 19.7 19.4 85 1.7 NNE 30 35 16 19 1013.3 1013.2 0.0
27/05:00pm 22.6 20.5 19.0 80 2.3 NNE 28 32 15 17 1013.4 1013.3 0.0
27/04:30pm 24.9 24.9 20.2 75 3.1 NE 20 24 11 13 1013.9 1013.8 0.0
27/04:00pm 23.7 23.9 19.4 77 2.8 ENE 17 22 9 12 1014.3 1014.2 0.0
27/03:30pm 22.7 22.4 18.3 76 2.8 E 17 19 9 10 1014.8 1014.7 0.0
27/03:00pm 22.8 22.4 18.1 75 2.9 E 17 22 9 12 1015.1 1015.0 0.0
27/02:30pm 23.3 22.4 18.2 73 3.2 E 20 24 11 13 1015.3 1015.2 0.0
27/02:00pm 22.9 22.4 17.8 73 3.2 E 17 20 9 11 1015.9 1015.8 0.0
27/01:30pm 23.0 23.2 17.7 72 3.3 ESE 13 17 7 9 1016.3 1016.2 0.0

Other formats

Comma delimited format used in spreadsheet applications
http://www.bom.gov.au/fwo/IDN60801/IDN60801.95770.axf

JavaScript Object Notation format (JSON) in row-major order
http://www.bom.gov.au/fwo/IDN60801/IDN60801.95770.json

Data quality

Most of these data are generated automatically and are frequently updated. Quality checks on data are not normally performed. It is possible for incorrect values to appear. Refer to information at About Latest Weather Observations and please check the disclaimer before using these data.